sensor_id;sensor_type;location;lat;lon;timestamp;temperature;humidity
2913;DHT22;1466;48.778;9.166;2022-07-21T00:00:42;24.10;99.90
2913;DHT22;1466;48.778;9.166;2022-07-21T00:03:07;24.00;99.90
2913;DHT22;1466;48.778;9.166;2022-07-21T00:05:33;24.00;99.90
2913;DHT22;1466;48.778;9.166;2022-07-21T00:08:00;23.90;99.90
2913;DHT22;1466;48.778;9.166;2022-07-21T00:10:26;23.90;99.90
2913;DHT22;1466;48.778;9.166;2022-07-21T00:12:53;23.80;99.90
2913;DHT22;1466;48.778;9.166;2022-07-21T00:15:20;23.90;99.90
2913;DHT22;1466;48.778;9.166;2022-07-21T00:17:47;23.80;99.90
2913;DHT22;1466;48.778;9.166;2022-07-21T00:20:18;23.80;99.90
2913;DHT22;1466;48.778;9.166;2022-07-21T00:22:44;23.80;99.90
2913;DHT22;1466;48.778;9.166;2022-07-21T00:25:11;23.80;99.90
2913;DHT22;1466;48.778;9.166;2022-07-21T00:27:38;23.80;99.90
2913;DHT22;1466;48.778;9.166;2022-07-21T00:30:06;23.80;99.90
2913;DHT22;1466;48.778;9.166;2022-07-21T00:32:32;23.90;99.90
2913;DHT22;1466;48.778;9.166;2022-07-21T00:34:58;23.90;99.90
2913;DHT22;1466;48.778;9.166;2022-07-21T00:37:24;23.90;99.90
2913;DHT22;1466;48.778;9.166;2022-07-21T00:39:51;24.00;99.90
2913;DHT22;1466;48.778;9.166;2022-07-21T00:42:24;24.00;99.90
2913;DHT22;1466;48.778;9.166;2022-07-21T00:44:51;23.90;99.90
2913;DHT22;1466;48.778;9.166;2022-07-21T00:47:23;23.90;99.90
2913;DHT22;1466;48.778;9.166;2022-07-21T00:49:50;23.90;99.90
2913;DHT22;1466;48.778;9.166;2022-07-21T00:52:16;24.00;99.90
2913;DHT22;1466;48.778;9.166;2022-07-21T00:54:42;23.80;99.90
2913;DHT22;1466;48.778;9.166;2022-07-21T00:57:08;23.80;99.90
2913;DHT22;1466;48.778;9.166;2022-07-21T00:59:35;23.80;99.90
2913;DHT22;1466;48.778;9.166;2022-07-21T01:02:00;23.70;99.90
2913;DHT22;1466;48.778;9.166;2022-07-21T01:04:26;23.70;99.90
2913;DHT22;1466;48.778;9.166;2022-07-21T01:06:53;23.70;99.90
2913;DHT22;1466;48.778;9.166;2022-07-21T01:09:20;23.60;99.90
2913;DHT22;1466;48.778;9.166;2022-07-21T01:11:46;23.70;99.90
2913;DHT22;1466;48.778;9.166;2022-07-21T01:14:12;23.70;99.90
2913;DHT22;1466;48.778;9.166;2022-07-21T01:16:39;23.60;99.90
2913;DHT22;1466;48.778;9.166;2022-07-21T01:19:06;23.50;99.90
2913;DHT22;1466;48.778;9.166;2022-07-21T01:21:37;23.50;99.90
2913;DHT22;1466;48.778;9.166;2022-07-21T01:24:04;23.50;99.90
2913;DHT22;1466;48.778;9.166;2022-07-21T01:26:31;23.50;99.90
2913;DHT22;1466;48.778;9.166;2022-07-21T01:28:57;23.40;99.90
2913;DHT22;1466;48.778;9.166;2022-07-21T01:31:23;23.40;99.90
2913;DHT22;1466;48.778;9.166;2022-07-21T01:33:50;23.50;99.90
2913;DHT22;1466;48.778;9.166;2022-07-21T01:36:16;23.40;99.90
2913;DHT22;1466;48.778;9.166;2022-07-21T01:38:41;23.40;99.90
2913;DHT22;1466;48.778;9.166;2022-07-21T01:41:25;23.30;99.90
2913;DHT22;1466;48.778;9.166;2022-07-21T01:44:06;23.40;99.90
2913;DHT22;1466;48.778;9.166;2022-07-21T01:46:34;23.40;99.90
2913;DHT22;1466;48.778;9.166;2022-07-21T01:49:01;23.50;99.90
2913;DHT22;1466;48.778;9.166;2022-07-21T01:51:26;23.60;99.90
2913;DHT22;1466;48.778;9.166;2022-07-21T01:53:53;23.50;99.90
2913;DHT22;1466;48.778;9.166;2022-07-21T01:56:20;23.50;99.90
2913;DHT22;1466;48.778;9.166;2022-07-21T01:58:46;23.60;99.90
2913;DHT22;1466;48.778;9.166;2022-07-21T02:01:12;23.70;99.90
2913;DHT22;1466;48.778;9.166;2022-07-21T02:03:38;23.80;99.90
2913;DHT22;1466;48.778;9.166;2022-07-21T02:06:04;23.80;99.90
2913;DHT22;1466;48.778;9.166;2022-07-21T02:08:31;23.70;99.90
2913;DHT22;1466;48.778;9.166;2022-07-21T02:10:57;23.70;99.90
2913;DHT22;1466;48.778;9.166;2022-07-21T02:13:26;23.60;99.90
2913;DHT22;1466;48.778;9.166;2022-07-21T02:15:52;23.40;99.90
2913;DHT22;1466;48.778;9.166;2022-07-21T02:18:18;23.40;99.90
2913;DHT22;1466;48.778;9.166;2022-07-21T02:20:44;23.30;99.90
2913;DHT22;1466;48.778;9.166;2022-07-21T02:23:20;23.30;99.90
2913;DHT22;1466;48.778;9.166;2022-07-21T02:25:46;23.10;99.90
2913;DHT22;1466;48.778;9.166;2022-07-21T02:28:11;23.10;99.90
2913;DHT22;1466;48.778;9.166;2022-07-21T02:30:37;23.10;99.90
2913;DHT22;1466;48.778;9.166;2022-07-21T02:33:03;23.00;99.90
2913;DHT22;1466;48.778;9.166;2022-07-21T02:35:29;23.00;99.90
2913;DHT22;1466;48.778;9.166;2022-07-21T02:37:55;23.00;99.90
2913;DHT22;1466;48.778;9.166;2022-07-21T02:40:21;22.90;99.90
2913;DHT22;1466;48.778;9.166;2022-07-21T02:42:46;22.90;99.90
2913;DHT22;1466;48.778;9.166;2022-07-21T02:45:12;22.80;99.90
2913;DHT22;1466;48.778;9.166;2022-07-21T02:50:24;22.70;99.90
2913;DHT22;1466;48.778;9.166;2022-07-21T02:52:57;22.70;99.90
2913;DHT22;1466;48.778;9.166;2022-07-21T02:55:24;22.70;99.90
2913;DHT22;1466;48.778;9.166;2022-07-21T02:58:02;22.70;99.90
2913;DHT22;1466;48.778;9.166;2022-07-21T03:00:27;22.80;99.90
2913;DHT22;1466;48.778;9.166;2022-07-21T03:02:53;22.80;99.90
2913;DHT22;1466;48.778;9.166;2022-07-21T03:05:18;22.90;99.90
2913;DHT22;1466;48.778;9.166;2022-07-21T03:07:44;23.00;99.90
2913;DHT22;1466;48.778;9.166;2022-07-21T03:10:10;23.00;99.90
2913;DHT22;1466;48.778;9.166;2022-07-21T03:12:35;23.10;99.90
2913;DHT22;1466;48.778;9.166;2022-07-21T03:15:01;23.20;99.90
2913;DHT22;1466;48.778;9.166;2022-07-21T03:17:26;23.20;99.90
2913;DHT22;1466;48.778;9.166;2022-07-21T03:19:52;23.20;99.90
2913;DHT22;1466;48.778;9.166;2022-07-21T03:22:17;23.20;99.90
2913;DHT22;1466;48.778;9.166;2022-07-21T03:24:43;23.20;99.90
2913;DHT22;1466;48.778;9.166;2022-07-21T03:27:08;23.20;99.90
2913;DHT22;1466;48.778;9.166;2022-07-21T03:29:34;23.30;99.90
2913;DHT22;1466;48.778;9.166;2022-07-21T03:32:00;23.30;99.90
2913;DHT22;1466;48.778;9.166;2022-07-21T03:34:25;23.30;99.90
2913;DHT22;1466;48.778;9.166;2022-07-21T03:36:51;23.30;99.90
2913;DHT22;1466;48.778;9.166;2022-07-21T03:39:16;23.40;99.90
2913;DHT22;1466;48.778;9.166;2022-07-21T03:41:42;23.40;99.90
2913;DHT22;1466;48.778;9.166;2022-07-21T03:44:07;23.40;99.90
2913;DHT22;1466;48.778;9.166;2022-07-21T03:46:33;23.40;99.90
2913;DHT22;1466;48.778;9.166;2022-07-21T03:48:59;23.40;99.90
2913;DHT22;1466;48.778;9.166;2022-07-21T03:51:24;23.30;99.90
2913;DHT22;1466;48.778;9.166;2022-07-21T03:53:50;23.20;99.90
2913;DHT22;1466;48.778;9.166;2022-07-21T03:56:15;23.10;99.90
2913;DHT22;1466;48.778;9.166;2022-07-21T03:58:41;22.90;99.90
2913;DHT22;1466;48.778;9.166;2022-07-21T04:01:06;22.80;99.90
2913;DHT22;1466;48.778;9.166;2022-07-21T04:03:32;22.80;99.90
2913;DHT22;1466;48.778;9.166;2022-07-21T04:05:59;22.80;99.90
2913;DHT22;1466;48.778;9.166;2022-07-21T04:08:24;22.80;99.90
2913;DHT22;1466;48.778;9.166;2022-07-21T04:10:51;22.90;99.90
2913;DHT22;1466;48.778;9.166;2022-07-21T04:13:16;23.00;99.90
2913;DHT22;1466;48.778;9.166;2022-07-21T04:15:42;23.00;99.90
2913;DHT22;1466;48.778;9.166;2022-07-21T04:18:09;23.00;99.90
2913;DHT22;1466;48.778;9.166;2022-07-21T04:20:35;23.00;99.90
2913;DHT22;1466;48.778;9.166;2022-07-21T04:23:01;23.00;99.90
2913;DHT22;1466;48.778;9.166;2022-07-21T04:25:27;23.10;99.90
2913;DHT22;1466;48.778;9.166;2022-07-21T04:27:54;23.10;99.90
2913;DHT22;1466;48.778;9.166;2022-07-21T04:30:23;23.10;99.90
2913;DHT22;1466;48.778;9.166;2022-07-21T04:32:49;23.10;99.90
2913;DHT22;1466;48.778;9.166;2022-07-21T04:35:15;23.00;99.90
2913;DHT22;1466;48.778;9.166;2022-07-21T04:37:41;22.90;99.90
2913;DHT22;1466;48.778;9.166;2022-07-21T04:40:09;22.90;99.90
2913;DHT22;1466;48.778;9.166;2022-07-21T04:42:36;22.80;99.90
2913;DHT22;1466;48.778;9.166;2022-07-21T04:45:03;22.80;99.90
2913;DHT22;1466;48.778;9.166;2022-07-21T04:47:29;22.90;99.90
2913;DHT22;1466;48.778;9.166;2022-07-21T04:49:54;22.90;99.90
2913;DHT22;1466;48.778;9.166;2022-07-21T04:52:22;23.00;99.90
2913;DHT22;1466;48.778;9.166;2022-07-21T04:54:48;22.90;99.90
2913;DHT22;1466;48.778;9.166;2022-07-21T04:57:14;22.90;99.90
2913;DHT22;1466;48.778;9.166;2022-07-21T04:59:39;22.90;99.90
2913;DHT22;1466;48.778;9.166;2022-07-21T05:02:05;23.00;99.90
2913;DHT22;1466;48.778;9.166;2022-07-21T05:04:31;23.00;99.90
2913;DHT22;1466;48.778;9.166;2022-07-21T05:06:57;23.00;99.90
2913;DHT22;1466;48.778;9.166;2022-07-21T05:09:23;23.10;99.90
2913;DHT22;1466;48.778;9.166;2022-07-21T05:11:48;23.00;99.90
2913;DHT22;1466;48.778;9.166;2022-07-21T05:14:14;23.00;99.90
2913;DHT22;1466;48.778;9.166;2022-07-21T05:16:42;23.00;99.90
2913;DHT22;1466;48.778;9.166;2022-07-21T05:19:08;23.10;99.90
2913;DHT22;1466;48.778;9.166;2022-07-21T05:21:34;23.20;99.90
2913;DHT22;1466;48.778;9.166;2022-07-21T05:24:00;23.30;99.90
2913;DHT22;1466;48.778;9.166;2022-07-21T05:26:25;23.50;99.90
2913;DHT22;1466;48.778;9.166;2022-07-21T05:28:51;23.50;99.90
2913;DHT22;1466;48.778;9.166;2022-07-21T05:31:16;23.60;99.90
2913;DHT22;1466;48.778;9.166;2022-07-21T05:33:42;23.60;99.90
2913;DHT22;1466;48.778;9.166;2022-07-21T05:36:08;23.60;99.90
2913;DHT22;1466;48.778;9.166;2022-07-21T05:38:33;23.60;99.90
2913;DHT22;1466;48.778;9.166;2022-07-21T05:40:59;23.70;99.90
2913;DHT22;1466;48.778;9.166;2022-07-21T05:43:26;23.60;99.90
2913;DHT22;1466;48.778;9.166;2022-07-21T05:45:52;23.60;99.90
2913;DHT22;1466;48.778;9.166;2022-07-21T05:48:17;23.60;99.90
2913;DHT22;1466;48.778;9.166;2022-07-21T05:50:43;23.60;99.90
2913;DHT22;1466;48.778;9.166;2022-07-21T05:53:09;23.60;99.90
2913;DHT22;1466;48.778;9.166;2022-07-21T05:55:34;23.60;99.90
2913;DHT22;1466;48.778;9.166;2022-07-21T05:58:00;23.70;99.90
2913;DHT22;1466;48.778;9.166;2022-07-21T06:00:26;23.70;99.90
2913;DHT22;1466;48.778;9.166;2022-07-21T06:02:51;23.80;99.90
2913;DHT22;1466;48.778;9.166;2022-07-21T06:05:17;23.90;99.90
2913;DHT22;1466;48.778;9.166;2022-07-21T06:07:43;23.90;99.90
2913;DHT22;1466;48.778;9.166;2022-07-21T06:10:09;23.80;99.90
2913;DHT22;1466;48.778;9.166;2022-07-21T06:12:34;23.80;99.90
2913;DHT22;1466;48.778;9.166;2022-07-21T06:15:00;23.80;99.90
2913;DHT22;1466;48.778;9.166;2022-07-21T06:17:26;23.90;99.90
2913;DHT22;1466;48.778;9.166;2022-07-21T06:19:51;23.90;99.90
2913;DHT22;1466;48.778;9.166;2022-07-21T06:22:17;23.90;99.90
2913;DHT22;1466;48.778;9.166;2022-07-21T06:24:42;23.80;99.90
2913;DHT22;1466;48.778;9.166;2022-07-21T06:27:08;23.80;99.90
2913;DHT22;1466;48.778;9.166;2022-07-21T06:29:34;23.80;99.90
2913;DHT22;1466;48.778;9.166;2022-07-21T06:32:00;23.80;99.90
2913;DHT22;1466;48.778;9.166;2022-07-21T06:34:26;23.80;99.90
2913;DHT22;1466;48.778;9.166;2022-07-21T06:36:51;23.80;99.90
2913;DHT22;1466;48.778;9.166;2022-07-21T06:39:17;23.90;99.90
2913;DHT22;1466;48.778;9.166;2022-07-21T06:41:43;24.00;99.90
2913;DHT22;1466;48.778;9.166;2022-07-21T06:44:08;24.10;99.90
2913;DHT22;1466;48.778;9.166;2022-07-21T06:46:34;24.10;99.90
2913;DHT22;1466;48.778;9.166;2022-07-21T06:49:01;24.20;99.90
2913;DHT22;1466;48.778;9.166;2022-07-21T06:51:26;24.20;99.90
2913;DHT22;1466;48.778;9.166;2022-07-21T06:53:52;24.20;99.90
2913;DHT22;1466;48.778;9.166;2022-07-21T06:56:18;24.30;99.90
2913;DHT22;1466;48.778;9.166;2022-07-21T06:58:44;24.40;99.90
2913;DHT22;1466;48.778;9.166;2022-07-21T07:01:10;24.40;99.90
2913;DHT22;1466;48.778;9.166;2022-07-21T07:03:36;24.40;99.90
2913;DHT22;1466;48.778;9.166;2022-07-21T07:06:05;24.40;99.90
2913;DHT22;1466;48.778;9.166;2022-07-21T07:08:32;24.50;99.90
2913;DHT22;1466;48.778;9.166;2022-07-21T07:10:57;24.50;99.90
2913;DHT22;1466;48.778;9.166;2022-07-21T07:13:23;24.60;99.90
2913;DHT22;1466;48.778;9.166;2022-07-21T07:15:48;24.60;99.90
2913;DHT22;1466;48.778;9.166;2022-07-21T07:18:14;24.40;99.90
2913;DHT22;1466;48.778;9.166;2022-07-21T07:20:40;24.40;99.90
2913;DHT22;1466;48.778;9.166;2022-07-21T07:23:05;24.40;99.90
2913;DHT22;1466;48.778;9.166;2022-07-21T07:25:31;24.40;99.90
2913;DHT22;1466;48.778;9.166;2022-07-21T07:27:57;24.40;99.90
2913;DHT22;1466;48.778;9.166;2022-07-21T07:30:23;24.60;99.90
2913;DHT22;1466;48.778;9.166;2022-07-21T07:32:49;24.70;99.90
2913;DHT22;1466;48.778;9.166;2022-07-21T07:35:16;24.80;99.90
2913;DHT22;1466;48.778;9.166;2022-07-21T07:37:44;24.90;99.90
2913;DHT22;1466;48.778;9.166;2022-07-21T07:40:15;25.10;99.90
2913;DHT22;1466;48.778;9.166;2022-07-21T07:42:41;25.10;99.90
2913;DHT22;1466;48.778;9.166;2022-07-21T07:45:07;25.10;99.90
2913;DHT22;1466;48.778;9.166;2022-07-21T07:47:34;25.20;99.90
2913;DHT22;1466;48.778;9.166;2022-07-21T07:50:00;25.30;99.30
2913;DHT22;1466;48.778;9.166;2022-07-21T07:52:26;25.20;99.20
2913;DHT22;1466;48.778;9.166;2022-07-21T07:54:53;25.30;99.10
2913;DHT22;1466;48.778;9.166;2022-07-21T07:57:19;25.30;98.40
2913;DHT22;1466;48.778;9.166;2022-07-21T07:59:44;25.30;98.10
2913;DHT22;1466;48.778;9.166;2022-07-21T08:02:10;25.40;98.00
2913;DHT22;1466;48.778;9.166;2022-07-21T08:04:36;25.40;97.70
2913;DHT22;1466;48.778;9.166;2022-07-21T08:07:03;25.50;97.40
2913;DHT22;1466;48.778;9.166;2022-07-21T08:09:29;25.70;97.30
2913;DHT22;1466;48.778;9.166;2022-07-21T08:11:54;25.70;97.30
2913;DHT22;1466;48.778;9.166;2022-07-21T08:14:20;26.00;97.20
2913;DHT22;1466;48.778;9.166;2022-07-21T08:16:46;26.20;97.00
2913;DHT22;1466;48.778;9.166;2022-07-21T08:19:11;26.40;96.60
2913;DHT22;1466;48.778;9.166;2022-07-21T08:21:37;26.40;95.70
2913;DHT22;1466;48.778;9.166;2022-07-21T08:24:03;26.50;95.00
2913;DHT22;1466;48.778;9.166;2022-07-21T08:26:29;26.60;94.40
2913;DHT22;1466;48.778;9.166;2022-07-21T08:28:56;26.60;94.30
2913;DHT22;1466;48.778;9.166;2022-07-21T08:31:22;26.70;93.90
2913;DHT22;1466;48.778;9.166;2022-07-21T08:33:49;26.90;93.90
2913;DHT22;1466;48.778;9.166;2022-07-21T08:36:16;26.90;93.90
2913;DHT22;1466;48.778;9.166;2022-07-21T08:38:43;27.00;93.90
2913;DHT22;1466;48.778;9.166;2022-07-21T08:41:08;27.10;93.70
2913;DHT22;1466;48.778;9.166;2022-07-21T08:43:35;27.00;93.70
2913;DHT22;1466;48.778;9.166;2022-07-21T08:46:01;27.10;93.50
2913;DHT22;1466;48.778;9.166;2022-07-21T08:48:28;27.10;93.30
2913;DHT22;1466;48.778;9.166;2022-07-21T08:50:55;27.10;92.90
2913;DHT22;1466;48.778;9.166;2022-07-21T08:53:21;26.90;92.60
2913;DHT22;1466;48.778;9.166;2022-07-21T08:55:47;26.90;92.60
2913;DHT22;1466;48.778;9.166;2022-07-21T08:58:13;26.70;92.70
2913;DHT22;1466;48.778;9.166;2022-07-21T09:00:44;26.70;92.90
2913;DHT22;1466;48.778;9.166;2022-07-21T09:03:24;26.60;92.90
2913;DHT22;1466;48.778;9.166;2022-07-21T09:08:35;26.60;92.90
2913;DHT22;1466;48.778;9.166;2022-07-21T09:13:36;26.60;92.20
2913;DHT22;1466;48.778;9.166;2022-07-21T09:16:02;26.80;92.00
2913;DHT22;1466;48.778;9.166;2022-07-21T09:18:27;27.00;91.80
2913;DHT22;1466;48.778;9.166;2022-07-21T09:20:53;27.20;91.70
2913;DHT22;1466;48.778;9.166;2022-07-21T09:23:22;27.30;90.70
2913;DHT22;1466;48.778;9.166;2022-07-21T09:25:53;27.30;90.60
2913;DHT22;1466;48.778;9.166;2022-07-21T09:30:58;27.30;90.10
2913;DHT22;1466;48.778;9.166;2022-07-21T09:38:27;27.40;88.40
2913;DHT22;1466;48.778;9.166;2022-07-21T09:40:53;27.40;88.50
2913;DHT22;1466;48.778;9.166;2022-07-21T09:43:38;27.50;88.70
2913;DHT22;1466;48.778;9.166;2022-07-21T09:46:19;28.30;86.60
2913;DHT22;1466;48.778;9.166;2022-07-21T09:48:47;29.10;84.70
2913;DHT22;1466;48.778;9.166;2022-07-21T09:56:25;30.60;79.80
2913;DHT22;1466;48.778;9.166;2022-07-21T09:58:54;30.90;78.40
2913;DHT22;1466;48.778;9.166;2022-07-21T10:01:20;31.20;78.20
2913;DHT22;1466;48.778;9.166;2022-07-21T10:03:48;31.40;77.00
2913;DHT22;1466;48.778;9.166;2022-07-21T10:06:15;31.50;75.60
2913;DHT22;1466;48.778;9.166;2022-07-21T10:08:42;31.20;73.50
2913;DHT22;1466;48.778;9.166;2022-07-21T10:11:08;30.90;74.00
2913;DHT22;1466;48.778;9.166;2022-07-21T10:13:36;30.90;74.20
2913;DHT22;1466;48.778;9.166;2022-07-21T10:16:02;31.00;74.40
2913;DHT22;1466;48.778;9.166;2022-07-21T10:23:59;30.90;72.90
2913;DHT22;1466;48.778;9.166;2022-07-21T10:26:25;30.90;72.50
2913;DHT22;1466;48.778;9.166;2022-07-21T10:28:50;30.90;72.40
2913;DHT22;1466;48.778;9.166;2022-07-21T10:31:21;30.70;72.10
2913;DHT22;1466;48.778;9.166;2022-07-21T10:41:43;29.30;72.60
2913;DHT22;1466;48.778;9.166;2022-07-21T10:47:13;28.80;71.60
2913;DHT22;1466;48.778;9.166;2022-07-21T10:57:38;28.50;71.90
2913;DHT22;1466;48.778;9.166;2022-07-21T11:00:27;28.80;72.30
2913;DHT22;1466;48.778;9.166;2022-07-21T11:02:56;29.10;72.60
2913;DHT22;1466;48.778;9.166;2022-07-21T11:05:23;29.20;72.20
2913;DHT22;1466;48.778;9.166;2022-07-21T11:08:09;29.30;72.20
2913;DHT22;1466;48.778;9.166;2022-07-21T11:10:36;29.30;71.60
2913;DHT22;1466;48.778;9.166;2022-07-21T11:13:02;29.20;72.60
2913;DHT22;1466;48.778;9.166;2022-07-21T11:18:17;29.20;73.70
2913;DHT22;1466;48.778;9.166;2022-07-21T11:20:43;29.50;73.20
2913;DHT22;1466;48.778;9.166;2022-07-21T11:23:09;29.70;72.10
2913;DHT22;1466;48.778;9.166;2022-07-21T11:25:34;29.90;71.60
2913;DHT22;1466;48.778;9.166;2022-07-21T11:28:00;29.70;71.40
2913;DHT22;1466;48.778;9.166;2022-07-21T11:30:26;29.80;70.80
2913;DHT22;1466;48.778;9.166;2022-07-21T11:32:51;29.90;70.80
2913;DHT22;1466;48.778;9.166;2022-07-21T11:35:17;29.70;70.00
2913;DHT22;1466;48.778;9.166;2022-07-21T11:37:45;29.80;70.40
2913;DHT22;1466;48.778;9.166;2022-07-21T11:40:17;29.80;70.30
2913;DHT22;1466;48.778;9.166;2022-07-21T11:42:45;29.50;69.50
2913;DHT22;1466;48.778;9.166;2022-07-21T11:45:13;29.30;69.70
2913;DHT22;1466;48.778;9.166;2022-07-21T11:47:40;29.00;69.80
2913;DHT22;1466;48.778;9.166;2022-07-21T11:50:08;28.90;70.60
2913;DHT22;1466;48.778;9.166;2022-07-21T11:52:36;28.80;71.30
2913;DHT22;1466;48.778;9.166;2022-07-21T11:55:07;28.70;70.80
2913;DHT22;1466;48.778;9.166;2022-07-21T11:57:34;28.60;71.50
2913;DHT22;1466;48.778;9.166;2022-07-21T12:00:00;28.50;72.00
2913;DHT22;1466;48.778;9.166;2022-07-21T12:02:30;28.40;72.80
2913;DHT22;1466;48.778;9.166;2022-07-21T12:10:10;28.60;72.80
2913;DHT22;1466;48.778;9.166;2022-07-21T12:12:40;28.70;72.00
2913;DHT22;1466;48.778;9.166;2022-07-21T12:15:21;28.90;70.60
2913;DHT22;1466;48.778;9.166;2022-07-21T12:18:08;29.00;70.10
2913;DHT22;1466;48.778;9.166;2022-07-21T12:20:38;29.20;70.20
2913;DHT22;1466;48.778;9.166;2022-07-21T12:23:26;29.40;69.60
2913;DHT22;1466;48.778;9.166;2022-07-21T12:25:53;29.30;67.80
2913;DHT22;1466;48.778;9.166;2022-07-21T12:28:20;29.10;70.00
2913;DHT22;1466;48.778;9.166;2022-07-21T12:30:54;28.80;70.80
2913;DHT22;1466;48.778;9.166;2022-07-21T12:33:29;28.60;71.30
2913;DHT22;1466;48.778;9.166;2022-07-21T12:35:58;28.60;71.40
2913;DHT22;1466;48.778;9.166;2022-07-21T12:38:38;28.70;72.10
2913;DHT22;1466;48.778;9.166;2022-07-21T12:41:05;28.90;71.30
2913;DHT22;1466;48.778;9.166;2022-07-21T12:43:31;29.10;70.80
2913;DHT22;1466;48.778;9.166;2022-07-21T12:46:10;29.10;70.60
2913;DHT22;1466;48.778;9.166;2022-07-21T12:48:37;29.20;70.60
2913;DHT22;1466;48.778;9.166;2022-07-21T12:53:49;29.20;72.00
2913;DHT22;1466;48.778;9.166;2022-07-21T12:58:47;28.90;74.10
2913;DHT22;1466;48.778;9.166;2022-07-21T13:01:15;28.80;74.20
2913;DHT22;1466;48.778;9.166;2022-07-21T13:03:42;28.90;74.00
2913;DHT22;1466;48.778;9.166;2022-07-21T13:06:08;28.80;74.40
2913;DHT22;1466;48.778;9.166;2022-07-21T13:08:36;28.80;74.00
2913;DHT22;1466;48.778;9.166;2022-07-21T13:11:02;28.90;73.40
2913;DHT22;1466;48.778;9.166;2022-07-21T13:13:31;29.00;73.50
2913;DHT22;1466;48.778;9.166;2022-07-21T13:15:57;29.10;73.30
2913;DHT22;1466;48.778;9.166;2022-07-21T13:18:23;29.20;73.80
2913;DHT22;1466;48.778;9.166;2022-07-21T13:20:52;29.10;73.40
2913;DHT22;1466;48.778;9.166;2022-07-21T13:23:18;29.20;73.60
2913;DHT22;1466;48.778;9.166;2022-07-21T13:25:45;29.30;73.40
2913;DHT22;1466;48.778;9.166;2022-07-21T13:28:11;29.40;73.20
2913;DHT22;1466;48.778;9.166;2022-07-21T13:30:36;29.40;73.40
2913;DHT22;1466;48.778;9.166;2022-07-21T13:33:02;29.30;73.70
2913;DHT22;1466;48.778;9.166;2022-07-21T13:35:28;29.10;73.80
2913;DHT22;1466;48.778;9.166;2022-07-21T13:37:54;29.10;73.80
2913;DHT22;1466;48.778;9.166;2022-07-21T13:40:20;29.00;73.80
2913;DHT22;1466;48.778;9.166;2022-07-21T13:42:46;28.90;74.50
2913;DHT22;1466;48.778;9.166;2022-07-21T13:45:12;28.70;74.90
2913;DHT22;1466;48.778;9.166;2022-07-21T13:47:39;28.60;75.40
2913;DHT22;1466;48.778;9.166;2022-07-21T13:50:05;28.70;75.60
2913;DHT22;1466;48.778;9.166;2022-07-21T13:52:32;28.70;75.30
2913;DHT22;1466;48.778;9.166;2022-07-21T13:54:58;28.80;75.00
2913;DHT22;1466;48.778;9.166;2022-07-21T13:57:24;28.90;75.00
2913;DHT22;1466;48.778;9.166;2022-07-21T13:59:50;28.90;74.40
2913;DHT22;1466;48.778;9.166;2022-07-21T14:02:15;28.70;73.50
2913;DHT22;1466;48.778;9.166;2022-07-21T14:04:41;28.70;73.50
2913;DHT22;1466;48.778;9.166;2022-07-21T14:07:07;28.80;73.50
2913;DHT22;1466;48.778;9.166;2022-07-21T14:09:33;29.00;73.40
2913;DHT22;1466;48.778;9.166;2022-07-21T14:11:59;29.10;72.60
2913;DHT22;1466;48.778;9.166;2022-07-21T14:14:24;29.20;72.60
2913;DHT22;1466;48.778;9.166;2022-07-21T14:16:52;29.20;72.30
2913;DHT22;1466;48.778;9.166;2022-07-21T14:19:19;29.30;72.30
2913;DHT22;1466;48.778;9.166;2022-07-21T14:21:45;29.20;71.70
2913;DHT22;1466;48.778;9.166;2022-07-21T14:24:11;29.20;71.00
2913;DHT22;1466;48.778;9.166;2022-07-21T14:26:55;29.10;71.00
2913;DHT22;1466;48.778;9.166;2022-07-21T14:29:21;29.20;70.80
2913;DHT22;1466;48.778;9.166;2022-07-21T14:31:47;29.30;70.80
2913;DHT22;1466;48.778;9.166;2022-07-21T14:34:15;29.40;70.60
2913;DHT22;1466;48.778;9.166;2022-07-21T14:36:40;29.40;70.40
2913;DHT22;1466;48.778;9.166;2022-07-21T14:39:06;29.60;70.00
2913;DHT22;1466;48.778;9.166;2022-07-21T14:41:32;29.50;68.60
2913;DHT22;1466;48.778;9.166;2022-07-21T14:43:58;29.30;68.20
2913;DHT22;1466;48.778;9.166;2022-07-21T14:46:23;29.20;68.60
2913;DHT22;1466;48.778;9.166;2022-07-21T14:48:49;29.10;69.30
2913;DHT22;1466;48.778;9.166;2022-07-21T14:51:14;29.10;68.80
2913;DHT22;1466;48.778;9.166;2022-07-21T14:53:40;29.20;69.00
2913;DHT22;1466;48.778;9.166;2022-07-21T14:56:06;29.40;69.00
2913;DHT22;1466;48.778;9.166;2022-07-21T14:58:31;29.40;68.70
2913;DHT22;1466;48.778;9.166;2022-07-21T15:00:57;29.50;68.70
2913;DHT22;1466;48.778;9.166;2022-07-21T15:03:23;29.60;68.70
2913;DHT22;1466;48.778;9.166;2022-07-21T15:05:48;29.70;68.50
2913;DHT22;1466;48.778;9.166;2022-07-21T15:08:14;29.80;68.50
2913;DHT22;1466;48.778;9.166;2022-07-21T15:10:41;29.90;68.30
2913;DHT22;1466;48.778;9.166;2022-07-21T15:13:06;29.90;68.00
2913;DHT22;1466;48.778;9.166;2022-07-21T15:15:32;29.70;68.20
2913;DHT22;1466;48.778;9.166;2022-07-21T15:18:00;29.60;68.70
2913;DHT22;1466;48.778;9.166;2022-07-21T15:20:26;29.50;68.60
2913;DHT22;1466;48.778;9.166;2022-07-21T15:22:51;29.40;69.00
2913;DHT22;1466;48.778;9.166;2022-07-21T15:25:17;29.40;69.30
2913;DHT22;1466;48.778;9.166;2022-07-21T15:27:43;29.40;69.30
2913;DHT22;1466;48.778;9.166;2022-07-21T15:30:11;29.40;68.90
2913;DHT22;1466;48.778;9.166;2022-07-21T15:32:37;29.60;68.80
2913;DHT22;1466;48.778;9.166;2022-07-21T15:35:04;29.60;68.60
2913;DHT22;1466;48.778;9.166;2022-07-21T15:37:29;29.60;68.70
2913;DHT22;1466;48.778;9.166;2022-07-21T15:39:55;29.50;68.60
2913;DHT22;1466;48.778;9.166;2022-07-21T15:42:21;29.50;68.70
2913;DHT22;1466;48.778;9.166;2022-07-21T15:44:46;29.40;68.70
2913;DHT22;1466;48.778;9.166;2022-07-21T15:47:12;29.30;68.90
2913;DHT22;1466;48.778;9.166;2022-07-21T15:49:38;29.30;69.20
2913;DHT22;1466;48.778;9.166;2022-07-21T15:52:04;29.30;69.30
2913;DHT22;1466;48.778;9.166;2022-07-21T15:54:30;29.30;69.20
2913;DHT22;1466;48.778;9.166;2022-07-21T15:56:56;29.30;68.90
2913;DHT22;1466;48.778;9.166;2022-07-21T15:59:22;29.20;68.90
2913;DHT22;1466;48.778;9.166;2022-07-21T16:02:05;29.20;69.00
2913;DHT22;1466;48.778;9.166;2022-07-21T16:04:31;29.30;69.50
2913;DHT22;1466;48.778;9.166;2022-07-21T16:06:57;29.50;69.10
2913;DHT22;1466;48.778;9.166;2022-07-21T16:09:23;29.60;69.10
2913;DHT22;1466;48.778;9.166;2022-07-21T16:11:49;29.80;69.20
2913;DHT22;1466;48.778;9.166;2022-07-21T16:14:15;29.90;68.90
2913;DHT22;1466;48.778;9.166;2022-07-21T16:16:41;30.10;68.80
2913;DHT22;1466;48.778;9.166;2022-07-21T16:19:06;30.10;68.40
2913;DHT22;1466;48.778;9.166;2022-07-21T16:21:32;30.10;68.20
2913;DHT22;1466;48.778;9.166;2022-07-21T16:23:57;30.10;68.00
2913;DHT22;1466;48.778;9.166;2022-07-21T16:26:23;30.00;68.70
2913;DHT22;1466;48.778;9.166;2022-07-21T16:28:51;29.90;68.00
2913;DHT22;1466;48.778;9.166;2022-07-21T16:31:17;29.70;68.00
2913;DHT22;1466;48.778;9.166;2022-07-21T16:33:43;29.70;68.30
2913;DHT22;1466;48.778;9.166;2022-07-21T16:36:09;29.60;68.10
2913;DHT22;1466;48.778;9.166;2022-07-21T16:38:34;29.50;68.30
2913;DHT22;1466;48.778;9.166;2022-07-21T16:41:00;29.40;68.40
2913;DHT22;1466;48.778;9.166;2022-07-21T16:43:26;29.30;68.10
2913;DHT22;1466;48.778;9.166;2022-07-21T16:45:51;29.20;68.40
2913;DHT22;1466;48.778;9.166;2022-07-21T16:48:17;29.20;68.40
2913;DHT22;1466;48.778;9.166;2022-07-21T16:50:42;29.20;68.20
2913;DHT22;1466;48.778;9.166;2022-07-21T16:53:08;29.30;68.10
2913;DHT22;1466;48.778;9.166;2022-07-21T16:55:33;29.40;68.00
2913;DHT22;1466;48.778;9.166;2022-07-21T16:57:59;29.50;67.80